Time;durP1;ratioP1;P1;durP2;ratioP2;P2;SDS_P1;SDS_P2;PMS_P1;PMS_P2;Temp;Humidity;BMP_temperature;BMP_pressure;BME280_temperature;BME280_humidity;BME280_pressure;Samples;Min_cycle;Max_cycle;Signal;HPM_P1;HPM_P2
2021/05/08 00:00:19;;;;;;;1.45;0.82;;;20.30;40.70;;;;;;5036706;28;20021;-54
2021/05/08 00:02:45;;;;;;;1.10;0.88;;;20.30;40.70;;;;;;5036793;28;20021;-50
2021/05/08 00:05:12;;;;;;;1.00;0.80;;;20.30;40.70;;;;;;5036992;28;20033;-53
2021/05/08 00:07:38;;;;;;;2.10;0.65;;;20.30;40.70;;;;;;5018859;28;20029;-54
2021/05/08 00:10:15;;;;;;;0.75;0.70;;;20.30;40.70;;;;;;5036680;28;20026;-53
2021/05/08 00:12:41;;;;;;;1.10;0.85;;;20.20;40.60;;;;;;5036673;28;20026;-54
2021/05/08 00:15:10;;;;;;;0.77;0.68;;;20.20;40.60;;;;;;5036612;28;20025;-54
2021/05/08 00:17:36;;;;;;;1.77;0.90;;;20.20;40.60;;;;;;5036404;28;20032;-53
2021/05/08 00:20:06;;;;;;;3.40;1.00;;;20.20;40.50;;;;;;5036024;28;20029;-54
2021/05/08 00:22:31;;;;;;;2.08;1.00;;;20.30;40.60;;;;;;5036519;28;20030;-54
2021/05/08 00:24:57;;;;;;;0.95;0.70;;;20.20;40.50;;;;;;5036329;28;20341;-54
2021/05/08 00:27:22;;;;;;;2.75;0.80;;;20.20;40.50;;;;;;5036534;28;20478;-54
2021/05/08 00:29:48;;;;;;;1.35;0.60;;;20.20;40.50;;;;;;5035739;28;20108;-57
2021/05/08 00:32:13;;;;;;;2.05;0.98;;;20.20;40.50;;;;;;5036148;28;20148;-51
2021/05/08 00:34:39;;;;;;;0.85;0.68;;;20.20;40.40;;;;;;5035844;28;20334;-53
2021/05/08 00:37:04;;;;;;;1.33;0.80;;;20.20;40.40;;;;;;5036119;28;20049;-53
2021/05/08 00:39:30;;;;;;;2.20;0.70;;;20.10;40.30;;;;;;5035737;28;20029;-52
2021/05/08 00:41:55;;;;;;;0.95;0.60;;;20.20;40.30;;;;;;5036109;28;20100;-51
2021/05/08 00:44:21;;;;;;;1.13;0.68;;;20.10;40.30;;;;;;5035961;28;20305;-53
2021/05/08 00:46:47;;;;;;;1.02;0.75;;;20.10;40.30;;;;;;5036228;28;20119;-55
2021/05/08 00:49:13;;;;;;;1.10;0.60;;;20.10;40.20;;;;;;5036170;28;20022;-53
2021/05/08 00:51:39;;;;;;;0.98;0.88;;;20.10;40.20;;;;;;5036097;28;20092;-50
2021/05/08 00:54:04;;;;;;;0.88;0.80;;;20.10;40.20;;;;;;5035892;28;20029;-51
2021/05/08 00:56:30;;;;;;;1.13;0.80;;;20.10;40.20;;;;;;5035527;28;20044;-53
2021/05/08 00:58:56;;;;;;;0.82;0.80;;;20.10;40.20;;;;;;5018061;28;20043;-51
2021/05/08 01:01:22;;;;;;;1.25;0.63;;;20.10;40.20;;;;;;5036051;28;20409;-52
2021/05/08 01:03:49;;;;;;;0.65;0.52;;;20.10;40.20;;;;;;5035615;28;20060;-53
2021/05/08 01:06:15;;;;;;;0.90;0.82;;;20.10;40.10;;;;;;5035623;28;20398;-51
2021/05/08 01:08:41;;;;;;;1.10;0.73;;;20.10;40.10;;;;;;5035632;28;20033;-55
2021/05/08 01:11:07;;;;;;;0.68;0.63;;;20.10;40.10;;;;;;5035472;28;20036;-52
2021/05/08 01:13:33;;;;;;;1.40;0.90;;;20.10;40.10;;;;;;5035228;28;20104;-52
2021/05/08 01:15:59;;;;;;;1.17;0.70;;;20.00;40.00;;;;;;5035237;28;20413;-51
2021/05/08 01:18:25;;;;;;;1.15;0.82;;;20.00;40.00;;;;;;5035296;28;20066;-56
2021/05/08 01:20:51;;;;;;;1.20;0.82;;;20.00;40.00;;;;;;5035221;28;20044;-52
2021/05/08 01:23:16;;;;;;;1.20;0.75;;;20.00;40.70;;;;;;5035011;28;20116;-54
2021/05/08 01:25:42;;;;;;;0.77;0.70;;;20.00;40.00;;;;;;5035148;28;20045;-55
2021/05/08 01:28:07;;;;;;;3.05;0.98;;;20.00;39.90;;;;;;5035352;28;20040;-52
2021/05/08 01:30:35;;;;;;;1.05;0.70;;;20.00;39.90;;;;;;5035493;28;20021;-55
2021/05/08 01:33:01;;;;;;;0.95;0.70;;;20.00;39.90;;;;;;5035125;28;20098;-51
2021/05/08 01:35:28;;;;;;;1.73;0.93;;;20.00;39.80;;;;;;5017509;28;20036;-51
2021/05/08 01:37:54;;;;;;;0.65;0.60;;;19.90;39.80;;;;;;5035259;28;20460;-52
2021/05/08 01:40:26;;;;;;;1.08;0.73;;;19.90;39.80;;;;;;5035312;28;20029;-52
2021/05/08 01:42:53;;;;;;;0.80;0.60;;;19.90;39.80;;;;;;5034839;28;20029;-52
2021/05/08 01:45:20;;;;;;;1.05;0.70;;;19.90;39.80;;;;;;5034770;28;20071;-50
2021/05/08 01:47:46;;;;;;;0.70;0.70;;;19.90;39.80;;;;;;5035570;28;20029;-54
2021/05/08 01:50:14;;;;;;;0.73;0.73;;;19.90;39.70;;;;;;5034884;28;20028;-49
2021/05/08 01:52:40;;;;;;;1.15;0.70;;;19.90;39.70;;;;;;5034640;28;20412;-52
2021/05/08 01:55:09;;;;;;;1.50;0.73;;;19.90;39.70;;;;;;5035078;28;20176;-51
2021/05/08 01:58:04;;;;;;;1.35;0.68;;;19.90;39.70;;;;;;5034786;28;20025;-55
2021/05/08 02:00:33;;;;;;;1.35;0.93;;;19.90;39.60;;;;;;5022133;28;20037;-51
2021/05/08 02:02:59;;;;;;;1.95;0.90;;;19.80;39.60;;;;;;5034576;28;20048;-56
2021/05/08 02:05:30;;;;;;;0.98;0.70;;;19.80;39.60;;;;;;5035013;28;20041;-54
2021/05/08 02:07:59;;;;;;;1.45;0.70;;;19.80;39.60;;;;;;5034542;28;20057;-55
2021/05/08 02:10:25;;;;;;;0.77;0.77;;;19.80;39.50;;;;;;5038990;28;20108;-53
2021/05/08 02:12:50;;;;;;;1.10;0.80;;;19.80;39.50;;;;;;5039160;28;20413;-53
2021/05/08 02:15:18;;;;;;;1.35;1.02;;;19.80;39.50;;;;;;5039281;28;20395;-52
2021/05/08 02:17:44;;;;;;;1.23;0.98;;;19.80;39.50;;;;;;5038859;28;20053;-54
2021/05/08 02:20:23;;;;;;;0.80;0.70;;;19.80;39.50;;;;;;5038409;28;20080;-53
2021/05/08 02:22:50;;;;;;;1.30;0.90;;;19.80;39.50;;;;;;5038566;28;20030;-54
2021/05/08 02:25:16;;;;;;;1.38;0.90;;;19.80;39.50;;;;;;5038698;28;20037;-49
2021/05/08 02:27:42;;;;;;;0.95;0.80;;;19.80;39.50;;;;;;5038748;28;20025;-51
2021/05/08 02:30:10;;;;;;;2.55;0.90;;;19.80;39.50;;;;;;5038472;28;20109;-51
2021/05/08 02:32:36;;;;;;;0.80;0.80;;;19.70;39.80;;;;;;5038278;28;20096;-52
2021/05/08 02:35:03;;;;;;;1.63;0.70;;;19.70;39.40;;;;;;5038354;28;20061;-51
2021/05/08 02:37:29;;;;;;;1.15;0.80;;;19.70;39.40;;;;;;5038074;28;20064;-53
2021/05/08 02:39:55;;;;;;;1.52;0.95;;;19.70;39.50;;;;;;5038294;28;20025;-52
2021/05/08 02:42:20;;;;;;;0.90;0.70;;;19.70;39.40;;;;;;5038453;28;20053;-50
2021/05/08 02:44:46;;;;;;;1.30;1.20;;;19.70;39.40;;;;;;5038339;28;20060;-51
2021/05/08 02:47:19;;;;;;;1.55;1.00;;;19.70;39.40;;;;;;5038377;28;20037;-52
2021/05/08 02:49:49;;;;;;;1.00;0.90;;;19.70;39.40;;;;;;5038076;28;20026;-54
2021/05/08 02:52:15;;;;;;;1.52;0.95;;;19.70;39.40;;;;;;5038152;28;20317;-52
2021/05/08 02:54:41;;;;;;;0.90;0.85;;;19.70;39.40;;;;;;5038048;28;20029;-56
2021/05/08 02:57:07;;;;;;;1.13;0.73;;;19.70;39.40;;;;;;5037721;28;20036;-51
2021/05/08 02:59:33;;;;;;;0.90;0.77;;;19.60;39.30;;;;;;5037602;28;20334;-55
2021/05/08 03:01:58;;;;;;;1.38;1.10;;;19.60;39.30;;;;;;5037764;28;20021;-52
2021/05/08 03:04:24;;;;;;;2.15;0.65;;;19.70;39.40;;;;;;5037864;28;20103;-52
2021/05/08 03:06:49;;;;;;;1.25;0.82;;;19.60;39.30;;;;;;5037456;28;20064;-52
2021/05/08 03:09:15;;;;;;;0.85;0.80;;;19.60;39.40;;;;;;5037418;28;20100;-51
2021/05/08 03:11:41;;;;;;;1.67;1.00;;;19.60;39.70;;;;;;5037765;28;20043;-51
2021/05/08 03:14:07;;;;;;;2.55;0.85;;;19.60;39.30;;;;;;5037766;28;20029;-52
2021/05/08 03:16:32;;;;;;;1.08;0.90;;;19.60;40.00;;;;;;5019790;28;20025;-53
2021/05/08 03:18:58;;;;;;;0.60;0.60;;;19.60;39.30;;;;;;5037397;28;20330;-54
2021/05/08 03:21:23;;;;;;;0.80;0.80;;;19.60;39.40;;;;;;5036245;28;20030;-50
2021/05/08 03:23:49;;;;;;;1.08;0.98;;;19.60;39.40;;;;;;5037766;28;20033;-54
2021/05/08 03:26:14;;;;;;;1.08;0.85;;;19.60;39.40;;;;;;5037129;28;20030;-53
2021/05/08 03:28:40;;;;;;;1.08;0.80;;;19.60;39.30;;;;;;5037539;28;20117;-55
2021/05/08 03:31:05;;;;;;;1.23;0.93;;;19.50;39.30;;;;;;5037404;28;20033;-54
2021/05/08 03:33:31;;;;;;;1.30;0.82;;;19.60;39.40;;;;;;5037225;28;20086;-51
2021/05/08 03:35:56;;;;;;;2.17;1.10;;;19.60;39.40;;;;;;5036993;28;20115;-52
2021/05/08 03:38:22;;;;;;;0.82;0.82;;;19.60;39.30;;;;;;5037661;28;20045;-52
2021/05/08 03:40:47;;;;;;;1.02;0.93;;;19.50;39.30;;;;;;5019876;28;20084;-52
2021/05/08 03:43:13;;;;;;;1.48;0.90;;;19.50;39.30;;;;;;5037165;28;20032;-50
2021/05/08 03:45:38;;;;;;;1.05;0.90;;;19.50;39.30;;;;;;5036939;28;20136;-52
2021/05/08 03:48:05;;;;;;;1.50;0.95;;;19.50;39.30;;;;;;5037231;28;20022;-51
2021/05/08 03:50:30;;;;;;;2.72;0.98;;;19.50;39.40;;;;;;5037200;28;20100;-52
2021/05/08 03:52:56;;;;;;;1.25;1.15;;;19.50;39.40;;;;;;5037443;28;20061;-51
2021/05/08 03:55:21;;;;;;;1.55;1.20;;;19.50;39.50;;;;;;5037070;28;20127;-50
2021/05/08 03:57:47;;;;;;;1.48;1.00;;;19.50;39.40;;;;;;5036546;28;20033;-51
2021/05/08 04:00:14;;;;;;;1.48;1.10;;;19.50;39.40;;;;;;5037165;28;20033;-55
2021/05/08 04:02:39;;;;;;;1.10;1.00;;;19.50;39.40;;;;;;5036796;28;20025;-56
2021/05/08 04:05:05;;;;;;;1.63;1.27;;;19.50;39.40;;;;;;5036775;28;20516;-53
2021/05/08 04:07:31;;;;;;;1.20;1.02;;;19.40;39.30;;;;;;5036857;28;20042;-53
2021/05/08 04:09:56;;;;;;;1.77;1.15;;;19.40;39.30;;;;;;5036819;28;20403;-54
2021/05/08 04:12:22;;;;;;;1.05;1.02;;;19.50;39.40;;;;;;5036554;28;20022;-54
2021/05/08 04:14:48;;;;;;;1.17;1.08;;;19.40;39.30;;;;;;5036824;28;20025;-52
2021/05/08 04:17:13;;;;;;;1.20;1.08;;;19.40;39.40;;;;;;5036074;28;20052;-53
2021/05/08 04:19:39;;;;;;;1.27;1.17;;;19.40;39.40;;;;;;5036185;28;20093;-52
2021/05/08 04:22:04;;;;;;;0.98;0.98;;;19.50;39.40;;;;;;5036415;28;20026;-53
2021/05/08 04:24:30;;;;;;;1.45;1.33;;;19.40;39.40;;;;;;5036666;28;20102;-50
2021/05/08 04:26:55;;;;;;;1.60;1.10;;;19.50;39.40;;;;;;5036066;28;20040;-55
2021/05/08 04:29:21;;;;;;;1.40;1.10;;;19.40;39.40;;;;;;5036318;28;20021;-52
2021/05/08 04:31:47;;;;;;;1.25;1.15;;;19.40;39.40;;;;;;5035781;28;20483;-55
2021/05/08 04:34:12;;;;;;;1.27;1.17;;;19.40;39.40;;;;;;5036068;28;20026;-54
2021/05/08 04:36:38;;;;;;;1.65;1.10;;;19.40;39.40;;;;;;5036443;28;20080;-52
2021/05/08 04:39:04;;;;;;;1.67;1.35;;;19.40;39.40;;;;;;5036581;28;20057;-51
2021/05/08 04:41:29;;;;;;;3.70;1.33;;;19.40;39.40;;;;;;5035876;28;20022;-56
2021/05/08 04:43:55;;;;;;;1.42;1.25;;;19.40;39.40;;;;;;5035971;28;20030;-52
2021/05/08 04:46:23;;;;;;;1.10;1.00;;;19.40;39.40;;;;;;5035372;28;20121;-54
2021/05/08 04:48:52;;;;;;;1.58;1.15;;;19.40;39.40;;;;;;5036074;28;20120;-54
2021/05/08 04:51:19;;;;;;;1.67;1.13;;;19.40;39.40;;;;;;5036210;28;20336;-55
2021/05/08 04:53:45;;;;;;;1.13;1.02;;;19.40;39.40;;;;;;5036013;28;20018;-55
2021/05/08 04:56:10;;;;;;;1.25;1.05;;;19.40;39.40;;;;;;5035835;28;20044;-54
2021/05/08 04:58:36;;;;;;;1.58;1.30;;;19.40;40.10;;;;;;5035754;28;20109;-58
2021/05/08 05:01:01;;;;;;;1.25;1.10;;;19.40;39.40;;;;;;5035492;28;20047;-55
2021/05/08 05:03:27;;;;;;;1.95;1.10;;;19.40;39.40;;;;;;5035755;28;20356;-57
2021/05/08 05:05:52;;;;;;;1.88;1.33;;;19.40;39.40;;;;;;5035579;28;20029;-51
2021/05/08 05:08:21;;;;;;;1.33;0.90;;;19.30;39.40;;;;;;5035428;28;20037;-55
2021/05/08 05:10:52;;;;;;;2.45;1.15;;;19.30;39.50;;;;;;5035636;28;20030;-52
2021/05/08 05:13:22;;;;;;;2.00;1.20;;;19.30;39.60;;;;;;5017562;28;20022;-55
2021/05/08 05:15:49;;;;;;;1.30;0.98;;;19.40;39.80;;;;;;5035113;28;20453;-56
2021/05/08 05:18:15;;;;;;;1.90;1.10;;;19.40;39.90;;;;;;5035549;28;20056;-53
2021/05/08 05:20:41;;;;;;;1.35;1.25;;;19.40;39.90;;;;;;5035715;28;20037;-55
2021/05/08 05:23:07;;;;;;;1.23;1.00;;;19.40;39.90;;;;;;5035340;28;20021;-54
2021/05/08 05:25:32;;;;;;;1.90;1.00;;;19.40;40.00;;;;;;5017923;28;20360;-55
2021/05/08 05:27:58;;;;;;;1.05;0.90;;;19.50;40.00;;;;;;5035090;28;20028;-55
2021/05/08 05:30:24;;;;;;;0.90;0.90;;;19.50;40.00;;;;;;5035409;28;20484;-58
2021/05/08 05:32:49;;;;;;;0.95;0.90;;;19.60;40.10;;;;;;5034097;28;20051;-56
2021/05/08 05:35:15;;;;;;;1.45;0.90;;;19.60;40.10;;;;;;5035507;28;20417;-56
2021/05/08 05:37:40;;;;;;;5.25;1.17;;;19.70;40.20;;;;;;5034711;28;20057;-58
2021/05/08 05:40:07;;;;;;;1.65;1.05;;;19.70;40.40;;;;;;5035294;28;20061;-56
2021/05/08 05:42:33;;;;;;;2.60;1.10;;;19.70;40.50;;;;;;5034451;28;20463;-59
2021/05/08 05:44:58;;;;;;;1.70;1.33;;;19.70;40.60;;;;;;5034352;28;20057;-54
2021/05/08 05:47:26;;;;;;;5.07;1.73;;;19.80;40.60;;;;;;5034685;28;20033;-50
2021/05/08 05:49:53;;;;;;;6.70;1.60;;;19.80;40.60;;;;;;5034620;28;20429;-53
2021/05/08 05:52:20;;;;;;;1.10;0.98;;;19.80;40.50;;;;;;5017578;28;20360;-56
2021/05/08 05:54:48;;;;;;;1.95;1.27;;;19.80;40.50;;;;;;5034519;28;20437;-57
2021/05/08 05:57:14;;;;;;;1.00;0.90;;;19.80;40.60;;;;;;5035070;28;20100;-57
2021/05/08 05:59:40;;;;;;;2.08;1.02;;;19.90;40.60;;;;;;5034872;28;20105;-56
2021/05/08 06:02:06;;;;;;;5.10;0.70;;;19.90;40.50;;;;;;5032863;28;20096;-55
2021/05/08 06:04:32;;;;;;;1.40;0.88;;;19.90;40.50;;;;;;5034365;28;20033;-57
2021/05/08 06:06:58;;;;;;;2.65;1.10;;;20.00;40.60;;;;;;5034361;28;20038;-57
2021/05/08 06:09:25;;;;;;;1.60;1.10;;;20.00;40.50;;;;;;5034615;28;20040;-57
2021/05/08 06:11:52;;;;;;;2.08;1.50;;;20.00;40.50;;;;;;5034915;28;20428;-62
2021/05/08 06:14:18;;;;;;;1.52;1.10;;;20.00;40.60;;;;;;5034667;28;20017;-59
2021/05/08 06:16:44;;;;;;;1.83;0.88;;;20.10;40.70;;;;;;5034639;28;20039;-58
2021/05/08 06:19:09;;;;;;;1.75;0.80;;;20.10;40.70;;;;;;5034523;28;20056;-59
2021/05/08 06:21:35;;;;;;;2.85;0.98;;;20.10;40.70;;;;;;5034390;28;20040;-58
2021/05/08 06:24:01;;;;;;;9.52;1.23;;;20.10;40.80;;;;;;5034356;28;20025;-59
2021/05/08 06:26:26;;;;;;;6.72;1.27;;;20.20;41.10;;;;;;5034350;28;20455;-60
2021/05/08 06:28:52;;;;;;;6.43;1.50;;;20.20;41.40;;;;;;5034272;28;20440;-60
2021/05/08 06:31:17;;;;;;;6.97;1.20;;;20.20;41.50;;;;;;5034343;28;20021;-60
2021/05/08 06:33:43;;;;;;;8.73;1.23;;;20.20;41.40;;;;;;5034414;28;20032;-61
2021/05/08 06:36:08;;;;;;;2.70;1.10;;;20.20;41.50;;;;;;5034474;28;20014;-60
2021/05/08 06:38:34;;;;;;;4.72;1.00;;;20.20;41.50;;;;;;5034557;28;20042;-60
2021/05/08 06:40:59;;;;;;;3.25;1.55;;;20.20;41.90;;;;;;5034115;28;20117;-60
2021/05/08 06:43:25;;;;;;;6.82;1.05;;;20.30;41.80;;;;;;5034600;28;20033;-60
2021/05/08 06:45:51;;;;;;;8.23;1.10;;;20.30;41.80;;;;;;5033644;28;20471;-61
2021/05/08 06:48:16;;;;;;;5.32;1.27;;;20.30;41.90;;;;;;5034825;28;20018;-59
2021/05/08 06:50:46;;;;;;;4.80;1.23;;;20.30;42.10;;;;;;5034152;28;20029;-59
2021/05/08 06:53:12;;;;;;;0.98;0.88;;;20.40;42.20;;;;;;5034263;28;20061;-57
2021/05/08 06:55:38;;;;;;;4.13;1.20;;;20.40;42.30;;;;;;5036434;28;20049;-55
2021/05/08 06:58:04;;;;;;;2.13;0.80;;;20.30;42.20;;;;;;5037438;28;20040;-60
2021/05/08 07:00:29;;;;;;;4.07;1.00;;;20.40;42.20;;;;;;5037910;28;20021;-56
2021/05/08 07:02:55;;;;;;;2.05;0.80;;;20.40;42.30;;;;;;5038244;28;20033;-59
2021/05/08 07:05:20;;;;;;;4.20;1.08;;;20.40;42.30;;;;;;5037714;28;20460;-59
2021/05/08 07:07:46;;;;;;;1.80;0.80;;;20.40;42.40;;;;;;5037669;28;20029;-58
2021/05/08 07:10:12;;;;;;;1.92;1.17;;;20.50;42.50;;;;;;5037875;28;20037;-57
2021/05/08 07:12:38;;;;;;;1.73;0.98;;;20.50;42.50;;;;;;5037523;28;20030;-61
2021/05/08 07:15:05;;;;;;;3.78;0.70;;;20.50;42.60;;;;;;5037768;28;20026;-55
2021/05/08 07:17:30;;;;;;;5.93;1.20;;;20.50;42.70;;;;;;5038005;28;20394;-58
2021/05/08 07:19:56;;;;;;;1.58;1.00;;;20.50;42.70;;;;;;5037617;28;20033;-54
2021/05/08 07:22:21;;;;;;;4.43;1.15;;;20.60;42.70;;;;;;5037736;28;20037;-59
2021/05/08 07:24:47;;;;;;;8.13;1.15;;;20.60;42.80;;;;;;5037653;28;20025;-57
2021/05/08 07:27:13;;;;;;;4.28;1.33;;;20.60;42.80;;;;;;5019739;28;20124;-52
2021/05/08 07:29:38;;;;;;;3.22;1.20;;;20.60;42.90;;;;;;5038127;28;20108;-60
2021/05/08 07:32:04;;;;;;;2.95;1.25;;;20.60;43.00;;;;;;5037679;28;20087;-62
2021/05/08 07:34:30;;;;;;;2.63;1.10;;;20.60;43.00;;;;;;5036980;28;20025;-60
2021/05/08 07:36:55;;;;;;;4.75;1.00;;;20.60;43.20;;;;;;5037205;28;20035;-57
2021/05/08 07:39:21;;;;;;;7.32;1.27;;;20.70;43.20;;;;;;5037400;28;20116;-58
2021/05/08 07:41:46;;;;;;;5.78;1.58;;;20.70;43.20;;;;;;5036581;28;20364;-57
2021/05/08 07:44:12;;;;;;;10.50;1.67;;;20.70;43.20;;;;;;5037005;28;20025;-60
2021/05/08 07:46:37;;;;;;;6.22;1.65;;;20.70;43.10;;;;;;5037163;28;20037;-58
2021/05/08 07:49:03;;;;;;;12.13;1.67;;;20.70;43.10;;;;;;5037572;28;20029;-60
2021/05/08 07:51:29;;;;;;;6.20;1.20;;;20.80;43.20;;;;;;5036615;28;20427;-59
2021/05/08 07:53:54;;;;;;;4.22;1.23;;;20.70;43.20;;;;;;5037109;28;20072;-57
2021/05/08 07:56:22;;;;;;;1.23;0.77;;;20.80;43.20;;;;;;5036757;28;20030;-59
2021/05/08 07:58:47;;;;;;;2.88;0.90;;;20.80;43.10;;;;;;5037020;28;20358;-58
2021/05/08 08:01:13;;;;;;;2.55;1.15;;;20.80;43.10;;;;;;5036680;28;20026;-57
2021/05/08 08:03:38;;;;;;;7.20;1.30;;;20.80;43.10;;;;;;5037027;28;20333;-59
2021/05/08 08:06:04;;;;;;;4.20;1.02;;;20.90;43.10;;;;;;5035748;28;20034;-57
2021/05/08 08:08:29;;;;;;;3.00;1.02;;;20.80;43.00;;;;;;5036911;28;20052;-59
2021/05/08 08:10:56;;;;;;;5.03;1.00;;;20.80;42.90;;;;;;5035910;28;20026;-60
2021/05/08 08:13:22;;;;;;;2.20;0.73;;;20.90;42.90;;;;;;5036117;28;20041;-59
2021/05/08 08:15:48;;;;;;;5.88;1.10;;;20.90;42.80;;;;;;5036247;28;20033;-60
2021/05/08 08:18:13;;;;;;;2.88;1.40;;;20.90;42.80;;;;;;5036762;28;20025;-58
2021/05/08 08:20:39;;;;;;;5.50;1.10;;;20.90;42.70;;;;;;5036345;28;20338;-60
2021/05/08 08:23:04;;;;;;;2.65;1.20;;;20.80;42.60;;;;;;5036071;28;20108;-59
2021/05/08 08:25:30;;;;;;;6.30;1.10;;;20.90;42.60;;;;;;5036468;28;20415;-58
2021/05/08 08:27:55;;;;;;;5.97;1.10;;;20.90;42.50;;;;;;5035993;28;20508;-58
2021/05/08 08:30:21;;;;;;;2.75;1.30;;;20.90;42.40;;;;;;5036201;28;20033;-58
2021/05/08 08:32:47;;;;;;;1.27;1.00;;;20.90;42.40;;;;;;5036451;28;20428;-59
2021/05/08 08:35:12;;;;;;;4.78;1.63;;;20.90;42.30;;;;;;5035850;28;20441;-65
2021/05/08 08:37:38;;;;;;;5.57;1.38;;;20.90;42.20;;;;;;5018742;28;20045;-58
2021/05/08 08:40:04;;;;;;;1.98;1.35;;;20.90;42.30;;;;;;5036110;28;20025;-53
2021/05/08 08:42:30;;;;;;;4.47;1.17;;;20.90;42.30;;;;;;5036034;28;20059;-56
2021/05/08 08:44:59;;;;;;;2.35;1.10;;;20.90;42.20;;;;;;5035904;28;20164;-59
2021/05/08 08:47:29;;;;;;;2.08;0.80;;;20.90;42.20;;;;;;5035751;28;20029;-57
2021/05/08 08:49:58;;;;;;;3.42;1.38;;;21.00;42.20;;;;;;5035810;28;20026;-53
2021/05/08 08:52:23;;;;;;;2.83;1.20;;;21.00;42.20;;;;;;5035749;28;20041;-52
2021/05/08 08:54:49;;;;;;;3.60;1.30;;;21.00;42.20;;;;;;5036112;28;20108;-58
2021/05/08 08:57:18;;;;;;;12.70;1.67;;;21.00;42.10;;;;;;5035531;28;20436;-55
2021/05/08 08:59:44;;;;;;;5.85;1.30;;;21.00;42.10;;;;;;5035575;28;20167;-58
2021/05/08 09:02:09;;;;;;;2.95;1.50;;;21.00;42.10;;;;;;5017875;28;20027;-58
2021/05/08 09:04:35;;;;;;;7.22;1.63;;;21.10;42.30;;;;;;5035628;28;20108;-59
2021/05/08 09:07:01;;;;;;;3.70;1.30;;;21.10;43.20;;;;;;5035336;28;20048;-55
2021/05/08 09:09:28;;;;;;;4.57;1.25;;;21.10;44.20;;;;;;5035005;28;20033;-59
2021/05/08 09:11:54;;;;;;;3.33;1.75;;;21.10;45.00;;;;;;5035431;28;20148;-54
2021/05/08 09:14:23;;;;;;;3.20;1.70;;;21.10;45.70;;;;;;5035324;28;20030;-56
2021/05/08 09:17:05;;;;;;;4.93;1.60;;;21.20;46.40;;;;;;5035605;28;20017;-51
2021/05/08 09:19:33;;;;;;;4.63;1.45;;;21.20;46.60;;;;;;5035373;28;20402;-51
2021/05/08 09:22:06;;;;;;;5.32;1.50;;;21.20;47.00;;;;;;5035040;28;20021;-51
2021/05/08 09:24:51;;;;;;;;;;;21.20;47.10;;;;;;5035513;28;20083;-52
2021/05/08 09:27:40;;;;;;;4.10;1.65;;;21.20;47.20;;;;;;5035163;28;19963;-58
2021/05/08 09:30:11;;;;;;;4.47;1.73;;;21.20;47.10;;;;;;5035156;28;20357;-53
2021/05/08 09:32:48;;;;;;;4.18;1.45;;;21.30;47.30;;;;;;5035181;28;20021;-54
2021/05/08 09:35:21;;;;;;;5.75;1.45;;;21.30;47.10;;;;;;5034774;28;20017;-53
2021/05/08 09:37:49;;;;;;;5.17;1.60;;;21.30;47.10;;;;;;5035307;28;20049;-54
2021/05/08 09:40:22;;;;;;;4.93;1.52;;;21.40;47.00;;;;;;5035034;28;20083;-56
2021/05/08 09:42:54;;;;;;;4.72;1.73;;;21.40;46.80;;;;;;5034800;28;20026;-53
2021/05/08 09:45:22;;;;;;;3.80;1.40;;;21.40;46.70;;;;;;5034781;28;20082;-58
2021/05/08 09:47:48;;;;;;;3.35;1.33;;;21.40;46.60;;;;;;5033944;28;20087;-56
2021/05/08 09:50:14;;;;;;;3.13;1.30;;;21.50;46.50;;;;;;5034824;28;20442;-56
2021/05/08 09:53:06;;;;;;;3.88;1.60;;;21.50;46.30;;;;;;5035041;28;20025;-51
2021/05/08 09:55:34;;;;;;;2.08;1.00;;;21.50;46.70;;;;;;5029903;28;20061;-57
2021/05/08 09:58:04;;;;;;;4.72;1.70;;;21.50;45.90;;;;;;5035022;28;20013;-56
2021/05/08 10:00:41;;;;;;;3.13;1.48;;;21.60;45.50;;;;;;5034704;28;20440;-57
2021/05/08 10:03:09;;;;;;;4.60;1.83;;;21.60;44.60;;;;;;5035083;28;20053;-58
2021/05/08 10:05:35;;;;;;;1.80;1.30;;;21.60;44.20;;;;;;5034918;28;20460;-50
2021/05/08 10:08:01;;;;;;;4.43;1.50;;;21.60;43.90;;;;;;5034118;28;20096;-53
2021/05/08 10:10:27;;;;;;;4.43;1.63;;;21.50;43.80;;;;;;5035023;28;20111;-54
2021/05/08 10:12:53;;;;;;;3.13;1.42;;;21.60;43.80;;;;;;5034479;28;20360;-56
2021/05/08 10:15:19;;;;;;;2.50;1.30;;;21.60;43.80;;;;;;5034622;28;20083;-53
2021/05/08 10:17:47;;;;;;;3.28;1.40;;;21.60;43.80;;;;;;5034985;28;20490;-56
2021/05/08 10:20:14;;;;;;;3.13;1.13;;;21.60;43.80;;;;;;5034952;28;20037;-55
2021/05/08 10:22:50;;;;;;;3.30;1.48;;;21.60;43.80;;;;;;5034754;28;20100;-52
2021/05/08 10:25:16;;;;;;;1.77;1.00;;;21.60;43.80;;;;;;5034506;28;20087;-55
2021/05/08 10:27:42;;;;;;;1.48;1.20;;;21.60;43.80;;;;;;5034843;28;20048;-56
2021/05/08 10:30:19;;;;;;;6.05;1.65;;;21.60;43.80;;;;;;5036816;28;20021;-53
2021/05/08 10:32:46;;;;;;;4.78;1.13;;;21.60;43.80;;;;;;5038570;28;20052;-57
2021/05/08 10:35:13;;;;;;;4.88;1.73;;;21.60;43.70;;;;;;5038196;28;20080;-56
2021/05/08 10:37:39;;;;;;;5.07;1.33;;;21.60;43.70;;;;;;5038325;28;20418;-55
2021/05/08 10:40:09;;;;;;;5.40;1.35;;;21.60;43.70;;;;;;5038641;28;20034;-58
2021/05/08 10:42:46;;;;;;;4.68;1.30;;;21.60;43.70;;;;;;5021049;28;20340;-56
2021/05/08 10:45:11;;;;;;;4.20;1.20;;;21.70;43.80;;;;;;5038113;28;20056;-56
2021/05/08 10:47:55;;;;;;;5.18;1.30;;;21.60;43.70;;;;;;5037526;28;20464;-60
2021/05/08 10:50:22;;;;;;;3.55;1.73;;;21.60;43.70;;;;;;5038527;28;20040;-58
2021/05/08 10:53:13;;;;;;;3.67;1.17;;;21.60;43.60;;;;;;5038317;28;20072;-55
2021/05/08 10:55:52;;;;;;;5.22;1.50;;;21.60;43.60;;;;;;5037961;28;20037;-55
2021/05/08 10:58:19;;;;;;;3.97;1.20;;;21.60;43.50;;;;;;5038481;28;20036;-58
2021/05/08 11:00:52;;;;;;;4.22;1.15;;;21.60;43.50;;;;;;5020514;28;20461;-56
2021/05/08 11:03:19;;;;;;;1.10;0.93;;;21.60;43.50;;;;;;5037870;28;20033;-56
2021/05/08 11:06:14;;;;;;;7.20;1.15;;;21.60;43.50;;;;;;5038172;28;20037;-58
2021/05/08 11:08:47;;;;;;;2.00;1.13;;;21.60;43.50;;;;;;5038166;28;20037;-55
2021/05/08 11:11:18;;;;;;;3.08;0.90;;;21.60;43.50;;;;;;5037664;28;20456;-58
2021/05/08 11:13:43;;;;;;;3.92;1.30;;;21.60;43.50;;;;;;5037909;28;20128;-54
2021/05/08 11:16:16;;;;;;;1.75;0.90;;;21.70;43.50;;;;;;5037364;28;20440;-58
2021/05/08 11:18:47;;;;;;;2.90;0.85;;;21.60;43.50;;;;;;5037452;28;20332;-50
2021/05/08 11:21:18;;;;;;;4.40;1.00;;;21.60;43.50;;;;;;5037438;28;20484;-56
2021/05/08 11:23:49;;;;;;;1.65;0.60;;;21.60;43.50;;;;;;5037632;28;20049;-55
2021/05/08 11:26:20;;;;;;;1.83;0.90;;;21.70;43.60;;;;;;5037525;28;20029;-59
2021/05/08 11:29:02;;;;;;;0.90;0.77;;;21.60;43.50;;;;;;5037456;28;20033;-55
2021/05/08 11:31:38;;;;;;;2.92;1.00;;;21.70;43.60;;;;;;5036586;28;20080;-56
2021/05/08 11:34:14;;;;;;;3.10;0.93;;;21.70;43.60;;;;;;5037320;28;20033;-56
2021/05/08 11:37:21;;;;;;;3.15;1.25;;;21.70;43.60;;;;;;5037873;28;20029;-54
2021/05/08 11:39:47;;;;;;;2.78;0.60;;;21.60;43.60;;;;;;4976176;28;20054;-59
2021/05/08 11:42:16;;;;;;;2.10;0.70;;;21.60;43.60;;;;;;4974911;28;20073;-56
2021/05/08 11:44:44;;;;;;;2.40;0.98;;;21.70;43.70;;;;;;5006862;28;20038;-53
2021/05/08 11:47:29;;;;;;;1.63;0.70;;;21.60;43.70;;;;;;5036799;28;20044;-58
2021/05/08 11:50:13;;;;;;;0.70;0.55;;;21.70;43.80;;;;;;5036584;28;20029;-58
2021/05/08 11:52:43;;;;;;;1.10;0.68;;;21.70;43.80;;;;;;5037350;28;20127;-58
2021/05/08 11:55:17;;;;;;;6.22;0.80;;;21.70;43.90;;;;;;5036896;28;20411;-59
2021/05/08 11:57:59;;;;;;;3.30;0.77;;;21.70;44.00;;;;;;5035833;28;20040;-56
2021/05/08 12:00:32;;;;;;;3.08;0.70;;;21.60;44.00;;;;;;5036243;28;20330;-58
2021/05/08 12:03:14;;;;;;;1.25;0.90;;;21.70;44.10;;;;;;4999677;28;20120;-59
2021/05/08 12:05:42;;;;;;;4.68;0.88;;;21.70;44.10;;;;;;5016784;28;20018;-59
2021/05/08 12:08:08;;;;;;;0.85;0.70;;;21.60;44.20;;;;;;5016763;28;20017;-56
2021/05/08 12:10:38;;;;;;;3.22;1.02;;;21.70;44.30;;;;;;5016738;28;20081;-55
2021/05/08 12:13:05;;;;;;;3.83;0.77;;;21.70;44.30;;;;;;5020049;28;20502;-58
2021/05/08 12:15:35;;;;;;;2.25;0.75;;;21.60;44.30;;;;;;5036569;28;20021;-58
2021/05/08 12:18:03;;;;;;;1.50;1.00;;;21.60;44.40;;;;;;5036173;28;20364;-59
2021/05/08 12:20:37;;;;;;;2.47;1.10;;;21.60;44.50;;;;;;5036266;28;20105;-57
2021/05/08 12:23:11;;;;;;;2.05;0.90;;;21.60;44.50;;;;;;5036053;28;20022;-58
2021/05/08 12:25:36;;;;;;;3.70;0.90;;;21.60;44.50;;;;;;5035737;28;20440;-56
2021/05/08 12:28:18;;;;;;;7.00;1.33;;;21.60;44.50;;;;;;5046219;28;20036;-59
2021/05/08 12:30:45;;;;;;;5.57;1.40;;;21.60;44.60;;;;;;5038938;28;20345;-60
2021/05/08 12:33:23;;;;;;;8.98;1.40;;;21.60;44.70;;;;;;5055720;28;20464;-60
2021/05/08 12:35:54;;;;;;;11.82;1.27;;;21.60;44.90;;;;;;5055739;28;20444;-60
2021/05/08 12:38:29;;;;;;;8.52;1.55;;;21.60;45.10;;;;;;5056124;28;20060;-59
2021/05/08 12:40:55;;;;;;;5.65;1.17;;;21.60;45.20;;;;;;5036527;28;20033;-59
2021/05/08 12:43:31;;;;;;;4.18;1.63;;;21.60;45.30;;;;;;5047021;28;20487;-60
2021/05/08 12:46:02;;;;;;;5.47;1.10;;;21.60;45.30;;;;;;5041716;28;20025;-59
2021/05/08 12:48:45;;;;;;;2.03;1.00;;;21.60;45.30;;;;;;5055568;28;20037;-58
2021/05/08 12:51:32;;;;;;;5.22;1.38;;;21.60;45.40;;;;;;5055719;28;20052;-58